<?xml version="1.0" encoding="UTF-8" standalone="no" ?>
<gpx xmlns="http://www.topografix.com/GPX/1/1" xmlns:xsi="http://www.w3.org/2001/XMLSchema-instance" xsi:schemaLocation="http://www.topografix.com/GPX/1/1 http://www.topografix.com/GPX/1/1/gpx.xsd" version="1.1" creator="VisuGPX - https://www.visugpx.com">
  <metadata>
    <name>Erquennes</name>
  </metadata>
  <trk>
    <name><![CDATA[Erquennes]]></name>
    <trkseg>
      <trkpt lat="50.35554" lon="3.79316">
        <ele>144.865</ele>
        <time>2017-12-17T14:34:08Z</time>
      </trkpt>
      <trkpt lat="50.35617" lon="3.79363">
        <ele>144.768</ele>
        <time>2017-12-17T14:35:44Z</time>
      </trkpt>
      <trkpt lat="50.35678" lon="3.79265">
        <ele>139.814</ele>
        <time>2017-12-17T14:36:53Z</time>
      </trkpt>
      <trkpt lat="50.35693" lon="3.79259">
        <ele>138.708</ele>
        <time>2017-12-17T14:37:07Z</time>
      </trkpt>
      <trkpt lat="50.35766" lon="3.79288">
        <ele>136.218</ele>
        <time>2017-12-17T14:38:01Z</time>
      </trkpt>
      <trkpt lat="50.35836" lon="3.79211">
        <ele>135.847</ele>
        <time>2017-12-17T14:39:00Z</time>
      </trkpt>
      <trkpt lat="50.35854" lon="3.79131">
        <ele>136.531</ele>
        <time>2017-12-17T14:39:54Z</time>
      </trkpt>
      <trkpt lat="50.358" lon="3.7905">
        <ele>141.354</ele>
        <time>2017-12-17T14:41:09Z</time>
      </trkpt>
      <trkpt lat="50.35888" lon="3.7891">
        <ele>141.689</ele>
        <time>2017-12-17T14:42:51Z</time>
      </trkpt>
      <trkpt lat="50.35885" lon="3.78892">
        <ele>140.932</ele>
        <time>2017-12-17T14:43:16Z</time>
      </trkpt>
      <trkpt lat="50.3595" lon="3.78746">
        <ele>136.451</ele>
        <time>2017-12-17T14:44:57Z</time>
      </trkpt>
      <trkpt lat="50.36027" lon="3.78853">
        <ele>133.57</ele>
        <time>2017-12-17T14:46:13Z</time>
      </trkpt>
      <trkpt lat="50.36072" lon="3.78853">
        <ele>134.456</ele>
        <time>2017-12-17T14:46:43Z</time>
      </trkpt>
      <trkpt lat="50.36158" lon="3.78821">
        <ele>137.459</ele>
        <time>2017-12-17T14:47:58Z</time>
      </trkpt>
      <trkpt lat="50.36193" lon="3.78887">
        <ele>139.414</ele>
        <time>2017-12-17T14:48:50Z</time>
      </trkpt>
      <trkpt lat="50.36219" lon="3.78853">
        <ele>139.908</ele>
        <time>2017-12-17T14:49:21Z</time>
      </trkpt>
      <trkpt lat="50.36321" lon="3.78584">
        <ele>141.637</ele>
        <time>2017-12-17T14:51:56Z</time>
      </trkpt>
      <trkpt lat="50.3634" lon="3.7859">
        <ele>142.836</ele>
        <time>2017-12-17T14:52:14Z</time>
      </trkpt>
      <trkpt lat="50.36589" lon="3.7915">
        <ele>150.48</ele>
        <time>2017-12-17T14:58:14Z</time>
      </trkpt>
      <trkpt lat="50.36812" lon="3.79754">
        <ele>151.453</ele>
        <time>2017-12-17T15:04:25Z</time>
      </trkpt>
      <trkpt lat="50.36819" lon="3.79832">
        <ele>151.278</ele>
        <time>2017-12-17T15:05:07Z</time>
      </trkpt>
      <trkpt lat="50.36779" lon="3.79963">
        <ele>150.231</ele>
        <time>2017-12-17T15:06:25Z</time>
      </trkpt>
      <trkpt lat="50.36771" lon="3.80294">
        <ele>150.13</ele>
        <time>2017-12-17T15:09:16Z</time>
      </trkpt>
      <trkpt lat="50.3674" lon="3.80576">
        <ele>151.699</ele>
        <time>2017-12-17T15:12:01Z</time>
      </trkpt>
      <trkpt lat="50.36784" lon="3.80864">
        <ele>148.948</ele>
        <time>2017-12-17T15:14:33Z</time>
      </trkpt>
      <trkpt lat="50.36736" lon="3.80995">
        <ele>150.261</ele>
        <time>2017-12-17T15:15:50Z</time>
      </trkpt>
      <trkpt lat="50.36747" lon="3.81023">
        <ele>149.117</ele>
        <time>2017-12-17T15:16:05Z</time>
      </trkpt>
      <trkpt lat="50.36797" lon="3.81064">
        <ele>146.608</ele>
        <time>2017-12-17T15:16:48Z</time>
      </trkpt>
      <trkpt lat="50.36806" lon="3.81108">
        <ele>145.996</ele>
        <time>2017-12-17T15:17:07Z</time>
      </trkpt>
      <trkpt lat="50.3669" lon="3.81338">
        <ele>145.685</ele>
        <time>2017-12-17T15:19:44Z</time>
      </trkpt>
      <trkpt lat="50.3667" lon="3.81473">
        <ele>143.719</ele>
        <time>2017-12-17T15:20:50Z</time>
      </trkpt>
      <trkpt lat="50.36573" lon="3.81516">
        <ele>145.282</ele>
        <time>2017-12-17T15:22:04Z</time>
      </trkpt>
      <trkpt lat="50.36521" lon="3.817">
        <ele>149.687</ele>
        <time>2017-12-17T15:23:36Z</time>
      </trkpt>
      <trkpt lat="50.36438" lon="3.81862">
        <ele>151.58</ele>
        <time>2017-12-17T15:25:12Z</time>
      </trkpt>
      <trkpt lat="50.36396" lon="3.81915">
        <ele>152.339</ele>
        <time>2017-12-17T15:25:53Z</time>
      </trkpt>
      <trkpt lat="50.36368" lon="3.81984">
        <ele>152.788</ele>
        <time>2017-12-17T15:26:33Z</time>
      </trkpt>
      <trkpt lat="50.3633" lon="3.82243">
        <ele>155.844</ele>
        <time>2017-12-17T15:28:39Z</time>
      </trkpt>
      <trkpt lat="50.36285" lon="3.82288">
        <ele>155.405</ele>
        <time>2017-12-17T15:29:21Z</time>
      </trkpt>
      <trkpt lat="50.36221" lon="3.82318">
        <ele>155.915</ele>
        <time>2017-12-17T15:30:14Z</time>
      </trkpt>
      <trkpt lat="50.36168" lon="3.82296">
        <ele>155.808</ele>
        <time>2017-12-17T15:30:55Z</time>
      </trkpt>
      <trkpt lat="50.3585" lon="3.82251">
        <ele>160.126</ele>
        <time>2017-12-17T15:34:54Z</time>
      </trkpt>
      <trkpt lat="50.35734" lon="3.82326">
        <ele>159.935</ele>
        <time>2017-12-17T15:36:27Z</time>
      </trkpt>
      <trkpt lat="50.35652" lon="3.82331">
        <ele>158.479</ele>
        <time>2017-12-17T15:37:30Z</time>
      </trkpt>
      <trkpt lat="50.35639" lon="3.82366">
        <ele>158.672</ele>
        <time>2017-12-17T15:37:50Z</time>
      </trkpt>
      <trkpt lat="50.3559" lon="3.82397">
        <ele>156.597</ele>
        <time>2017-12-17T15:38:35Z</time>
      </trkpt>
      <trkpt lat="50.35414" lon="3.82414">
        <ele>149.97</ele>
        <time>2017-12-17T15:40:42Z</time>
      </trkpt>
      <trkpt lat="50.35339" lon="3.82436">
        <ele>149.599</ele>
        <time>2017-12-17T15:42:01Z</time>
      </trkpt>
      <trkpt lat="50.35236" lon="3.8242">
        <ele>151.378</ele>
        <time>2017-12-17T15:43:22Z</time>
      </trkpt>
      <trkpt lat="50.35075" lon="3.82483">
        <ele>157.059</ele>
        <time>2017-12-17T15:45:33Z</time>
      </trkpt>
      <trkpt lat="50.34997" lon="3.82483">
        <ele>159.203</ele>
        <time>2017-12-17T15:46:36Z</time>
      </trkpt>
      <trkpt lat="50.34839" lon="3.82445">
        <ele>161.423</ele>
        <time>2017-12-17T15:48:42Z</time>
      </trkpt>
      <trkpt lat="50.34801" lon="3.82425">
        <ele>161.108</ele>
        <time>2017-12-17T15:49:17Z</time>
      </trkpt>
      <trkpt lat="50.34709" lon="3.82342">
        <ele>162.017</ele>
        <time>2017-12-17T15:50:50Z</time>
      </trkpt>
      <trkpt lat="50.34584" lon="3.82199">
        <ele>163.536</ele>
        <time>2017-12-17T15:52:56Z</time>
      </trkpt>
      <trkpt lat="50.34569" lon="3.81921">
        <ele>161.06</ele>
        <time>2017-12-17T15:55:15Z</time>
      </trkpt>
      <trkpt lat="50.3449" lon="3.81513">
        <ele>158.423</ele>
        <time>2017-12-17T15:58:59Z</time>
      </trkpt>
      <trkpt lat="50.34506" lon="3.81365">
        <ele>158.698</ele>
        <time>2017-12-17T16:00:14Z</time>
      </trkpt>
      <trkpt lat="50.34504" lon="3.81154">
        <ele>156.531</ele>
        <time>2017-12-17T16:02:08Z</time>
      </trkpt>
      <trkpt lat="50.34373" lon="3.80664">
        <ele>153.88</ele>
        <time>2017-12-17T16:06:49Z</time>
      </trkpt>
      <trkpt lat="50.34418" lon="3.80611">
        <ele>154.029</ele>
        <time>2017-12-17T16:07:31Z</time>
      </trkpt>
      <trkpt lat="50.3448" lon="3.80574">
        <ele>151.891</ele>
        <time>2017-12-17T16:08:27Z</time>
      </trkpt>
      <trkpt lat="50.34775" lon="3.80459">
        <ele>146.781</ele>
        <time>2017-12-17T16:15:27Z</time>
      </trkpt>
      <trkpt lat="50.34809" lon="3.80466">
        <ele>146.419</ele>
        <time>2017-12-17T16:15:55Z</time>
      </trkpt>
      <trkpt lat="50.34851" lon="3.8054">
        <ele>146.708</ele>
        <time>2017-12-17T16:16:45Z</time>
      </trkpt>
      <trkpt lat="50.34889" lon="3.80564">
        <ele>146.771</ele>
        <time>2017-12-17T16:17:17Z</time>
      </trkpt>
      <trkpt lat="50.35031" lon="3.80535">
        <ele>147.06</ele>
        <time>2017-12-17T16:19:11Z</time>
      </trkpt>
      <trkpt lat="50.35148" lon="3.8049">
        <ele>147.144</ele>
        <time>2017-12-17T16:20:50Z</time>
      </trkpt>
      <trkpt lat="50.35171" lon="3.80396">
        <ele>149.587</ele>
        <time>2017-12-17T16:21:43Z</time>
      </trkpt>
      <trkpt lat="50.35265" lon="3.80244">
        <ele>149.742</ele>
        <time>2017-12-17T16:23:30Z</time>
      </trkpt>
      <trkpt lat="50.35407" lon="3.79913">
        <ele>147.855</ele>
        <time>2017-12-17T16:27:03Z</time>
      </trkpt>
      <trkpt lat="50.35583" lon="3.79355">
        <ele>143.234</ele>
        <time>2017-12-17T16:32:23Z</time>
      </trkpt>
      <trkpt lat="50.35572" lon="3.79332">
        <ele>143.433</ele>
        <time>2017-12-17T16:32:40Z</time>
      </trkpt>
    </trkseg>
  </trk>
</gpx>